Terminal Aerodrome Forecast
Issued by NWS Sioux Falls, SD

Home | Current Version | Previous Version | Text Only | Print | Product List | Glossary On
Versions: 1 2 3 4 5 6 7 8 9 10 11 12 13 14 15 16
000
FTUS43 KFSD 200538
TAFHON
TAF
KHON 200538Z 2006/2106 36012KT 1SM -SN BKN008 OVC015
      TEMPO 2008/2011 1/2SM SN
     FM201100 34012KT 3SM -SN OVC025
     FM201500 33014G21KT P6SM BKN035
     FM210000 31013KT P6SM SCT080=

USA.gov is the U.S. government's official web portal to all federal, state and local government web resources and services.